Time;durP1;ratioP1;P1;durP2;ratioP2;P2;SDS_P1;SDS_P2;PMS_P1;PMS_P2;Temp;Humidity;BMP_temperature;BMP_pressure;BME280_temperature;BME280_humidity;BME280_pressure;Samples;Min_cycle;Max_cycle;Signal;HPM_P1;HPM_P2
2024/01/26 00:00:53;;;;;;;3.33;2.10;;;10.50;82.50;;;;;;5038080;28;20503;-70
2024/01/26 00:03:18;;;;;;;4.80;2.27;;;10.50;82.50;;;;;;5046560;28;20180;-73
2024/01/26 00:05:44;;;;;;;3.60;2.13;;;10.60;82.20;;;;;;5030364;28;20214;-71
2024/01/26 00:08:13;;;;;;;5.97;2.50;;;10.50;81.90;;;;;;5041899;28;20177;-68
2024/01/26 00:10:38;;;;;;;4.67;2.30;;;10.50;82.10;;;;;;5044153;28;20232;-69
2024/01/26 00:13:04;;;;;;;3.10;1.93;;;10.50;82.20;;;;;;5027872;28;20440;-70
2024/01/26 00:15:30;;;;;;;3.17;2.47;;;10.50;82.40;;;;;;5029431;28;20188;-73
2024/01/26 00:17:55;;;;;;;3.30;2.27;;;10.40;82.40;;;;;;5034985;28;20185;-72
2024/01/26 00:20:21;;;;;;;2.60;1.97;;;10.40;82.50;;;;;;5027897;28;20472;-72
2024/01/26 00:22:47;;;;;;;3.43;2.03;;;10.40;82.50;;;;;;5033670;28;20629;-72
2024/01/26 00:25:13;;;;;;;3.07;2.20;;;10.40;82.50;;;;;;5041245;28;20179;-73
2024/01/26 00:27:38;;;;;;;3.07;2.10;;;10.40;82.50;;;;;;5029218;28;20429;-71
2024/01/26 00:30:06;;;;;;;3.63;2.37;;;10.40;82.70;;;;;;5029299;28;20207;-70
2024/01/26 00:32:32;;;;;;;2.63;1.93;;;10.40;82.70;;;;;;5021857;28;20261;-72
2024/01/26 00:34:57;;;;;;;3.43;2.00;;;10.30;82.70;;;;;;5029852;28;20537;-71
2024/01/26 00:37:23;;;;;;;2.30;1.67;;;10.30;82.80;;;;;;5027563;28;20578;-72
2024/01/26 00:39:49;;;;;;;3.33;1.77;;;10.30;82.80;;;;;;5023919;28;20185;-70
2024/01/26 00:42:15;;;;;;;2.87;1.60;;;10.30;82.80;;;;;;5022830;28;20220;-73
2024/01/26 00:44:41;;;;;;;1.73;1.30;;;10.30;82.80;;;;;;5034738;28;20444;-72
2024/01/26 00:47:08;;;;;;;2.37;1.40;;;10.30;82.80;;;;;;5031274;28;20930;-71
2024/01/26 00:49:33;;;;;;;2.07;1.83;;;10.30;82.50;;;;;;5030117;28;20185;-71
2024/01/26 00:51:59;;;;;;;4.70;3.13;;;10.40;82.20;;;;;;5023718;28;20471;-71
2024/01/26 00:54:24;;;;;;;3.77;2.43;;;10.40;82.40;;;;;;5035223;28;20177;-71
2024/01/26 00:56:51;;;;;;;2.60;1.80;;;10.30;82.50;;;;;;5022708;28;20212;-70
2024/01/26 00:59:16;;;;;;;1.60;1.40;;;10.40;82.80;;;;;;5036387;28;20185;-70
2024/01/26 01:01:42;;;;;;;4.33;1.77;;;10.40;82.50;;;;;;5014573;28;20926;-72
2024/01/26 01:04:08;;;;;;;1.60;1.30;;;10.40;82.10;;;;;;5030134;28;20176;-71
2024/01/26 01:06:34;;;;;;;2.10;1.47;;;10.40;82.20;;;;;;5019913;28;20815;-72
2024/01/26 01:08:59;;;;;;;2.30;1.60;;;10.40;82.20;;;;;;5035244;28;20205;-71
2024/01/26 01:11:25;;;;;;;2.50;1.53;;;10.40;82.20;;;;;;5030741;28;20216;-71
2024/01/26 01:13:51;;;;;;;1.93;1.60;;;10.40;82.20;;;;;;5023537;28;20454;-71
2024/01/26 01:16:17;;;;;;;3.23;1.53;;;10.40;82.20;;;;;;5029988;28;20510;-71
2024/01/26 01:18:43;;;;;;;1.30;1.20;;;10.50;81.90;;;;;;5036233;28;20193;-73
2024/01/26 01:21:08;;;;;;;2.83;1.70;;;10.50;81.80;;;;;;5025904;28;20468;-73
2024/01/26 01:23:35;;;;;;;2.23;1.27;;;10.40;81.80;;;;;;5031827;28;20235;-73
2024/01/26 01:26:01;;;;;;;2.00;1.60;;;10.40;81.90;;;;;;5039628;28;20181;-73
2024/01/26 01:28:27;;;;;;;1.57;1.40;;;10.50;81.90;;;;;;5028435;28;20428;-71
2024/01/26 01:30:52;;;;;;;3.30;1.60;;;10.40;81.90;;;;;;5022062;28;20572;-72
2024/01/26 01:33:18;;;;;;;2.70;1.77;;;10.40;82.20;;;;;;5028817;28;20234;-73
2024/01/26 01:35:43;;;;;;;2.17;1.23;;;10.30;82.20;;;;;;5033207;28;20176;-73
2024/01/26 01:38:09;;;;;;;1.80;1.10;;;10.30;82.50;;;;;;5034743;28;20192;-72
2024/01/26 01:40:35;;;;;;;1.93;1.37;;;10.30;82.50;;;;;;5023688;28;20208;-73
2024/01/26 01:43:01;;;;;;;3.23;1.30;;;10.20;82.50;;;;;;5026402;28;20215;-72
2024/01/26 01:45:26;;;;;;;1.97;1.43;;;10.20;82.70;;;;;;5033907;28;20272;-70
2024/01/26 01:47:52;;;;;;;4.17;1.77;;;10.20;82.80;;;;;;5025507;28;20476;-71
2024/01/26 01:50:17;;;;;;;1.63;1.40;;;10.20;82.70;;;;;;5025809;28;20214;-71
2024/01/26 01:52:45;;;;;;;1.53;1.20;;;10.20;82.70;;;;;;5016340;28;20622;-71
2024/01/26 01:55:14;;;;;;;2.00;1.40;;;10.20;82.80;;;;;;5032607;28;20181;-71
2024/01/26 01:57:40;;;;;;;2.13;1.20;;;10.10;82.80;;;;;;5020504;28;20405;-71
2024/01/26 02:00:15;;;;;;;3.40;1.40;;;10.20;82.80;;;;;;5026450;28;20498;-71
2024/01/26 02:02:48;;;;;;;2.20;1.40;;;10.30;82.70;;;;;;5016561;28;21064;-72
2024/01/26 02:05:14;;;;;;;1.73;1.20;;;10.30;82.40;;;;;;5030285;28;20923;-71
2024/01/26 02:07:40;;;;;;;3.90;1.30;;;10.30;82.40;;;;;;5025007;28;20427;-73
2024/01/26 02:10:12;;;;;;;1.80;1.17;;;10.30;82.40;;;;;;5029287;28;20439;-72
2024/01/26 02:12:38;;;;;;;1.73;1.03;;;10.30;82.20;;;;;;5028078;28;20946;-72
2024/01/26 02:15:04;;;;;;;1.67;0.90;;;10.30;81.90;;;;;;5029677;28;20509;-71
2024/01/26 02:17:33;;;;;;;1.17;0.90;;;10.30;81.90;;;;;;5031024;28;20181;-71
2024/01/26 02:19:59;;;;;;;2.20;1.00;;;10.30;81.80;;;;;;5034428;28;20423;-71
2024/01/26 02:22:25;;;;;;;1.20;0.80;;;10.30;81.70;;;;;;5035659;28;20480;-72
2024/01/26 02:24:51;;;;;;;2.90;1.00;;;10.30;81.70;;;;;;5045230;28;20999;-71
2024/01/26 02:27:18;;;;;;;1.40;1.00;;;10.30;81.20;;;;;;5030336;28;20257;-71
2024/01/26 02:29:44;;;;;;;1.63;0.90;;;10.30;81.20;;;;;;5046186;28;20253;-70
2024/01/26 02:32:10;;;;;;;4.70;1.03;;;10.30;80.90;;;;;;5047381;28;20435;-71
2024/01/26 02:34:36;;;;;;;1.30;0.90;;;10.30;80.60;;;;;;5040911;28;20195;-71
2024/01/26 02:37:02;;;;;;;2.33;0.70;;;10.40;80.30;;;;;;5046220;28;20457;-71
2024/01/26 02:39:28;;;;;;;1.37;1.00;;;10.50;80.00;;;;;;5028525;28;20437;-70
2024/01/26 02:41:55;;;;;;;1.30;0.80;;;10.40;79.70;;;;;;5026489;28;20217;-72
2024/01/26 02:44:21;;;;;;;1.27;0.90;;;10.60;79.30;;;;;;5029959;28;20457;-72
2024/01/26 02:46:47;;;;;;;1.20;0.93;;;10.60;78.70;;;;;;5040010;28;20875;-73
2024/01/26 02:49:13;;;;;;;1.40;0.80;;;10.60;78.40;;;;;;5022996;28;20425;-73
2024/01/26 02:51:38;;;;;;;1.93;0.80;;;10.50;78.30;;;;;;5025531;28;20472;-71
2024/01/26 02:54:04;;;;;;;2.17;1.07;;;10.50;78.40;;;;;;5028904;28;20479;-73
2024/01/26 02:56:30;;;;;;;0.80;0.70;;;10.60;78.30;;;;;;5030574;28;20498;-71
2024/01/26 02:58:55;;;;;;;1.80;1.03;;;10.60;78.30;;;;;;5021171;28;20185;-71
2024/01/26 03:01:21;;;;;;;2.50;1.10;;;10.60;78.30;;;;;;5021624;28;20474;-71
2024/01/26 03:03:47;;;;;;;0.90;0.80;;;10.60;78.10;;;;;;5023370;28;20264;-72
2024/01/26 03:06:13;;;;;;;2.93;1.17;;;10.60;78.00;;;;;;5028227;28;20430;-71
2024/01/26 03:08:39;;;;;;;1.43;1.07;;;10.60;78.10;;;;;;5023433;28;20173;-73
2024/01/26 03:11:05;;;;;;;1.93;1.10;;;10.50;78.60;;;;;;5027887;28;20217;-71
2024/01/26 03:13:31;;;;;;;2.80;1.10;;;10.50;79.00;;;;;;5027488;28;20432;-71
2024/01/26 03:15:57;;;;;;;2.50;1.13;;;10.40;79.30;;;;;;5046721;28;20471;-70
2024/01/26 03:18:24;;;;;;;1.40;1.10;;;10.40;79.50;;;;;;5026649;28;20189;-72
2024/01/26 03:20:49;;;;;;;2.30;1.53;;;10.40;79.50;;;;;;5031659;28;20212;-72
2024/01/26 03:23:15;;;;;;;2.57;1.63;;;10.40;79.50;;;;;;5031672;28;20416;-70
2024/01/26 03:25:41;;;;;;;1.80;1.40;;;10.40;79.50;;;;;;5028840;28;20186;-72
2024/01/26 03:28:07;;;;;;;3.53;1.43;;;10.50;79.20;;;;;;5046882;28;20204;-73
2024/01/26 03:30:33;;;;;;;1.80;1.00;;;10.40;79.50;;;;;;5038840;28;20244;-71
2024/01/26 03:32:59;;;;;;;1.60;1.20;;;10.30;79.50;;;;;;5052193;28;20439;-72
2024/01/26 03:35:26;;;;;;;1.97;1.20;;;10.40;79.30;;;;;;5045883;28;20428;-72
2024/01/26 03:37:52;;;;;;;1.10;1.00;;;10.40;79.50;;;;;;5043474;28;20429;-70
2024/01/26 03:40:17;;;;;;;4.23;1.53;;;10.40;79.50;;;;;;5035793;28;21298;-73
2024/01/26 03:42:44;;;;;;;1.70;1.20;;;10.40;79.70;;;;;;5043877;28;20464;-73
2024/01/26 03:45:09;;;;;;;1.97;1.50;;;10.30;80.00;;;;;;5042320;28;20181;-73
2024/01/26 03:47:35;;;;;;;2.40;1.43;;;10.30;80.30;;;;;;5046117;28;20451;-72
2024/01/26 03:50:05;;;;;;;2.00;1.43;;;10.30;80.50;;;;;;5040894;28;20210;-71
2024/01/26 03:52:31;;;;;;;2.30;1.40;;;10.30;80.50;;;;;;5047782;28;20638;-71
2024/01/26 03:54:57;;;;;;;1.40;1.20;;;10.20;80.80;;;;;;5052977;28;20455;-71
2024/01/26 03:57:23;;;;;;;3.13;1.60;;;10.20;80.90;;;;;;5049452;28;20516;-70
2024/01/26 03:59:48;;;;;;;1.97;1.33;;;10.20;81.20;;;;;;5046071;28;20209;-72
2024/01/26 04:02:14;;;;;;;2.03;1.40;;;10.10;81.70;;;;;;5046573;28;20205;-72
2024/01/26 04:04:40;;;;;;;2.70;1.53;;;10.10;81.80;;;;;;5042163;28;20198;-71
2024/01/26 04:07:05;;;;;;;3.03;1.70;;;10.10;81.90;;;;;;5052504;28;20185;-72
2024/01/26 04:09:31;;;;;;;3.20;1.60;;;10.10;81.90;;;;;;5036927;28;20186;-71
2024/01/26 04:11:58;;;;;;;2.20;1.53;;;9.90;81.90;;;;;;5047630;28;20201;-73
2024/01/26 04:14:25;;;;;;;2.13;1.73;;;9.90;82.20;;;;;;5043163;28;20169;-71
2024/01/26 04:16:50;;;;;;;2.60;1.53;;;10.00;82.20;;;;;;5044654;28;20416;-72
2024/01/26 04:19:16;;;;;;;3.20;1.80;;;10.00;82.10;;;;;;5039503;28;20459;-72
2024/01/26 04:21:42;;;;;;;4.27;2.63;;;10.00;81.90;;;;;;5038216;28;20479;-72
2024/01/26 04:24:07;;;;;;;2.93;1.90;;;10.00;81.90;;;;;;5050048;28;20177;-72
2024/01/26 04:26:33;;;;;;;3.07;1.70;;;9.90;81.90;;;;;;5049051;28;20189;-71
2024/01/26 04:28:59;;;;;;;2.43;1.83;;;9.90;81.80;;;;;;5047075;28;20201;-71
2024/01/26 04:31:24;;;;;;;1.77;1.43;;;9.90;81.90;;;;;;5044392;28;20534;-71
2024/01/26 04:33:52;;;;;;;4.70;2.20;;;9.90;81.80;;;;;;5044672;28;20182;-70
2024/01/26 04:36:17;;;;;;;4.33;1.70;;;9.90;81.80;;;;;;5047831;28;20215;-73
2024/01/26 04:38:43;;;;;;;1.63;1.17;;;9.90;81.80;;;;;;5040316;28;20404;-71
2024/01/26 04:41:08;;;;;;;5.50;2.20;;;10.00;81.80;;;;;;5039516;28;20193;-72
2024/01/26 04:43:34;;;;;;;2.07;1.37;;;10.00;81.50;;;;;;5048351;28;20219;-71
2024/01/26 04:46:00;;;;;;;2.00;1.40;;;9.90;81.50;;;;;;5044636;28;20200;-71
2024/01/26 04:48:25;;;;;;;2.70;1.73;;;9.90;81.50;;;;;;5051806;28;20446;-72
2024/01/26 04:50:51;;;;;;;4.50;1.30;;;9.90;81.70;;;;;;5046248;28;20216;-71
2024/01/26 04:53:17;;;;;;;2.80;1.57;;;9.90;81.70;;;;;;5042301;28;20187;-72
2024/01/26 04:55:42;;;;;;;2.10;1.30;;;10.00;81.40;;;;;;5050823;28;20165;-70
2024/01/26 04:58:08;;;;;;;2.10;1.20;;;9.90;81.50;;;;;;5058128;28;20184;-71
2024/01/26 05:00:34;;;;;;;2.27;1.50;;;10.00;81.40;;;;;;5037516;28;20221;-72
2024/01/26 05:02:59;;;;;;;2.00;1.30;;;9.90;81.40;;;;;;5044534;28;20213;-72
2024/01/26 05:05:27;;;;;;;3.80;1.67;;;9.90;81.50;;;;;;5044089;28;20429;-71
2024/01/26 05:07:52;;;;;;;2.77;1.20;;;9.90;81.40;;;;;;5053098;28;20186;-70
2024/01/26 05:10:18;;;;;;;1.90;1.60;;;9.90;81.50;;;;;;5038519;28;20511;-71
2024/01/26 05:12:43;;;;;;;1.73;1.30;;;9.90;81.50;;;;;;5037944;28;20182;-71
2024/01/26 05:15:11;;;;;;;1.47;1.20;;;9.90;81.50;;;;;;5038587;28;20181;-73
2024/01/26 05:17:37;;;;;;;5.17;1.50;;;10.00;81.20;;;;;;5041705;28;20197;-71
2024/01/26 05:20:04;;;;;;;3.47;1.50;;;10.00;81.20;;;;;;5034288;28;20448;-73
2024/01/26 05:22:30;;;;;;;3.27;1.33;;;10.10;81.10;;;;;;5029778;28;20676;-71
2024/01/26 05:24:56;;;;;;;1.30;1.20;;;10.00;81.20;;;;;;5031594;28;20435;-72
2024/01/26 05:27:21;;;;;;;3.27;1.50;;;10.00;81.80;;;;;;5053257;28;20190;-71
2024/01/26 05:29:47;;;;;;;1.83;1.27;;;9.90;82.20;;;;;;5046512;28;20228;-71
2024/01/26 05:32:14;;;;;;;2.10;1.50;;;9.80;82.80;;;;;;5042744;28;20189;-71
2024/01/26 05:34:40;;;;;;;1.70;1.40;;;9.80;82.70;;;;;;5043145;28;20189;-71
2024/01/26 05:37:06;;;;;;;2.00;1.50;;;9.70;83.00;;;;;;5040552;28;20522;-72
2024/01/26 05:39:32;;;;;;;2.97;1.63;;;9.70;83.10;;;;;;5046245;28;20419;-72
2024/01/26 05:41:58;;;;;;;3.17;1.73;;;9.70;83.00;;;;;;5039285;28;20244;-71
2024/01/26 05:44:24;;;;;;;2.13;1.43;;;9.70;83.30;;;;;;5047947;28;20979;-71
2024/01/26 05:46:49;;;;;;;2.70;1.67;;;9.70;83.10;;;;;;5045404;28;20420;-72
2024/01/26 05:49:15;;;;;;;2.77;1.63;;;9.70;83.10;;;;;;5060463;28;20185;-72
2024/01/26 05:51:41;;;;;;;2.80;1.70;;;9.70;83.10;;;;;;5030644;28;20213;-71
2024/01/26 05:54:06;;;;;;;2.13;1.40;;;9.70;83.00;;;;;;5052359;28;20172;-71
2024/01/26 05:56:32;;;;;;;3.47;1.43;;;9.80;83.00;;;;;;5032846;28;20236;-72
2024/01/26 05:58:57;;;;;;;2.50;1.50;;;9.80;82.80;;;;;;5054358;28;20505;-71
2024/01/26 06:01:23;;;;;;;1.70;1.40;;;9.80;82.70;;;;;;5038656;28;20252;-72
2024/01/26 06:03:49;;;;;;;5.20;1.60;;;9.80;82.40;;;;;;5047238;28;20185;-72
2024/01/26 06:06:15;;;;;;;3.37;1.60;;;9.80;82.40;;;;;;5047027;28;20158;-72
2024/01/26 06:08:42;;;;;;;1.87;1.60;;;9.80;82.20;;;;;;5052054;28;20208;-73
2024/01/26 06:11:09;;;;;;;2.63;1.40;;;9.80;82.10;;;;;;5045519;28;20452;-72
2024/01/26 06:13:35;;;;;;;2.70;1.50;;;9.80;82.10;;;;;;5045653;28;20488;-72
2024/01/26 06:16:01;;;;;;;2.33;1.60;;;9.70;82.10;;;;;;5045565;28;20431;-72
2024/01/26 06:18:26;;;;;;;3.10;1.37;;;9.70;82.10;;;;;;5056255;28;20426;-72
2024/01/26 06:20:52;;;;;;;3.40;1.27;;;9.80;82.10;;;;;;5047571;28;20502;-72
2024/01/26 06:23:18;;;;;;;2.90;1.53;;;9.80;81.80;;;;;;5044007;28;20247;-69
2024/01/26 06:25:44;;;;;;;3.50;1.47;;;9.80;81.80;;;;;;5040954;28;20188;-72
2024/01/26 06:28:10;;;;;;;2.30;1.77;;;9.80;81.80;;;;;;5049912;28;20415;-71
2024/01/26 06:30:35;;;;;;;1.50;1.30;;;9.80;81.80;;;;;;5033542;28;20224;-71
2024/01/26 06:33:02;;;;;;;2.43;1.30;;;9.80;81.70;;;;;;5034560;28;20436;-71
2024/01/26 06:35:28;;;;;;;2.47;1.40;;;9.90;81.50;;;;;;5037844;28;20735;-71
2024/01/26 06:37:53;;;;;;;2.60;1.40;;;9.90;81.40;;;;;;5043983;28;20778;-73
2024/01/26 06:40:19;;;;;;;3.67;1.40;;;9.90;81.20;;;;;;5047638;28;20610;-72
2024/01/26 06:42:44;;;;;;;1.97;1.20;;;10.00;81.10;;;;;;5039111;28;20220;-72
2024/01/26 06:45:12;;;;;;;1.60;1.10;;;10.00;81.50;;;;;;5050048;28;20177;-70
2024/01/26 06:47:38;;;;;;;5.20;1.50;;;10.00;81.20;;;;;;5039012;28;20262;-72
2024/01/26 06:50:06;;;;;;;3.67;1.67;;;10.00;81.20;;;;;;5045697;28;20435;-72
2024/01/26 06:52:32;;;;;;;4.17;1.57;;;10.10;80.90;;;;;;5041539;28;20483;-71
2024/01/26 06:54:58;;;;;;;4.20;1.40;;;10.20;80.60;;;;;;5051576;28;20876;-71
2024/01/26 06:57:24;;;;;;;3.53;1.47;;;10.20;80.90;;;;;;5039183;28;20186;-71
2024/01/26 06:59:50;;;;;;;7.53;1.47;;;10.20;81.20;;;;;;5052981;28;20197;-71
2024/01/26 07:02:15;;;;;;;14.00;2.67;;;10.20;80.80;;;;;;5038550;28;20210;-73
2024/01/26 07:04:41;;;;;;;9.87;1.90;;;10.30;80.50;;;;;;5046385;28;20228;-73
2024/01/26 07:07:06;;;;;;;9.93;1.80;;;10.30;80.30;;;;;;5047166;28;20197;-74
2024/01/26 07:09:32;;;;;;;11.60;2.00;;;10.30;80.00;;;;;;5049372;28;20196;-72
2024/01/26 07:11:58;;;;;;;2.93;1.03;;;10.40;79.70;;;;;;5040341;28;20225;-72
2024/01/26 07:14:24;;;;;;;4.97;1.60;;;10.40;79.90;;;;;;5047333;28;20189;-72
2024/01/26 07:16:50;;;;;;;3.60;1.40;;;10.40;79.60;;;;;;5047020;28;20430;-72
2024/01/26 07:19:16;;;;;;;1.43;1.13;;;10.40;79.50;;;;;;5060364;28;20188;-72
2024/01/26 07:21:41;;;;;;;4.67;1.33;;;10.50;79.50;;;;;;5043717;28;20576;-72
2024/01/26 07:24:08;;;;;;;3.50;1.30;;;10.50;79.00;;;;;;5050260;28;20256;-73
2024/01/26 07:26:33;;;;;;;2.10;1.33;;;10.60;79.00;;;;;;5034315;28;20271;-72
2024/01/26 07:28:59;;;;;;;3.77;1.30;;;10.50;79.00;;;;;;5057779;28;20436;-71
2024/01/26 07:31:24;;;;;;;1.57;1.20;;;10.60;79.20;;;;;;5041965;28;20300;-71
2024/01/26 07:33:50;;;;;;;1.37;1.10;;;10.60;78.90;;;;;;5045484;28;20212;-71
2024/01/26 07:36:16;;;;;;;4.03;1.83;;;10.60;78.90;;;;;;5038836;28;20191;-74
2024/01/26 07:38:41;;;;;;;2.00;1.23;;;10.60;78.70;;;;;;5049135;28;20249;-72
2024/01/26 07:41:07;;;;;;;3.07;1.50;;;10.60;78.90;;;;;;5041435;28;20231;-74
2024/01/26 07:43:33;;;;;;;3.07;1.50;;;10.60;78.70;;;;;;5051092;28;20240;-74
2024/01/26 07:45:59;;;;;;;2.03;1.17;;;10.60;78.90;;;;;;5049284;28;20511;-74
2024/01/26 07:48:24;;;;;;;4.13;1.73;;;10.60;78.90;;;;;;5047014;28;20182;-74
2024/01/26 07:50:50;;;;;;;2.00;1.30;;;10.60;79.00;;;;;;5043985;28;20198;-73
2024/01/26 07:53:16;;;;;;;3.27;1.33;;;10.60;78.90;;;;;;5044187;28;20201;-74
2024/01/26 07:55:42;;;;;;;3.23;1.83;;;10.70;78.90;;;;;;5048316;28;20425;-75
2024/01/26 07:58:07;;;;;;;7.57;2.50;;;10.60;78.70;;;;;;5051027;28;20228;-74
2024/01/26 08:00:33;;;;;;;5.63;1.60;;;10.70;78.90;;;;;;5055051;28;20244;-73
2024/01/26 08:02:59;;;;;;;3.60;1.53;;;10.70;78.70;;;;;;5040780;28;20220;-73
2024/01/26 08:05:24;;;;;;;3.20;1.70;;;10.80;78.60;;;;;;5059349;28;20173;-74
2024/01/26 08:07:50;;;;;;;2.90;1.77;;;10.80;78.40;;;;;;5050686;28;20188;-74
2024/01/26 08:10:16;;;;;;;1.90;1.30;;;10.70;78.40;;;;;;5043307;28;20273;-74
2024/01/26 08:12:45;;;;;;;2.60;1.43;;;10.70;78.60;;;;;;5038034;28;20239;-74
2024/01/26 08:15:11;;;;;;;3.80;1.70;;;10.70;78.60;;;;;;5048685;28;20173;-75
2024/01/26 08:17:37;;;;;;;1.63;1.43;;;10.70;78.60;;;;;;5046836;28;20434;-74
2024/01/26 08:20:04;;;;;;;5.23;1.70;;;10.80;78.60;;;;;;5048634;28;20192;-73
2024/01/26 08:22:30;;;;;;;7.67;1.77;;;10.80;78.40;;;;;;5037970;28;20916;-71
2024/01/26 08:25:00;;;;;;;2.57;1.80;;;10.90;78.30;;;;;;5037208;28;20424;-70
2024/01/26 08:27:26;;;;;;;3.03;1.37;;;10.80;78.00;;;;;;5035485;28;20450;-71
2024/01/26 08:29:52;;;;;;;3.83;1.60;;;10.90;78.10;;;;;;5042005;28;20504;-72
2024/01/26 08:32:18;;;;;;;7.63;1.87;;;10.90;78.30;;;;;;5028931;28;20460;-72
2024/01/26 08:34:44;;;;;;;3.10;1.60;;;10.90;78.10;;;;;;5026482;28;20503;-73
2024/01/26 08:37:10;;;;;;;2.40;1.40;;;10.90;78.10;;;;;;5038918;28;20412;-72
2024/01/26 08:39:36;;;;;;;3.30;1.47;;;10.90;78.30;;;;;;5039684;28;20217;-71
2024/01/26 08:42:02;;;;;;;2.13;1.40;;;10.90;78.40;;;;;;5029556;28;20473;-71
2024/01/26 08:44:30;;;;;;;7.10;2.03;;;10.90;78.30;;;;;;5027669;28;20193;-71
2024/01/26 08:46:56;;;;;;;2.90;2.00;;;11.00;78.10;;;;;;5037845;28;20425;-72
2024/01/26 08:49:21;;;;;;;1.80;1.40;;;11.00;78.00;;;;;;5035140;28;20436;-71
2024/01/26 08:51:47;;;;;;;5.13;1.63;;;11.00;78.00;;;;;;5023948;28;20492;-74
2024/01/26 08:54:13;;;;;;;1.97;1.50;;;11.00;78.00;;;;;;5033717;28;20229;-70
2024/01/26 08:56:42;;;;;;;4.03;1.40;;;11.00;78.00;;;;;;5028962;28;20415;-72
2024/01/26 08:59:08;;;;;;;3.43;1.40;;;11.10;77.70;;;;;;5032812;28;20200;-71
2024/01/26 09:01:38;;;;;;;2.30;1.27;;;11.10;77.60;;;;;;5026434;28;20472;-70
2024/01/26 09:04:07;;;;;;;4.23;1.50;;;11.10;77.70;;;;;;5029886;28;20478;-71
2024/01/26 09:06:37;;;;;;;5.60;1.80;;;11.10;77.70;;;;;;5029225;28;21152;-73
2024/01/26 09:09:04;;;;;;;2.03;1.37;;;11.20;77.60;;;;;;5038232;28;20455;-72
2024/01/26 09:11:30;;;;;;;2.63;1.47;;;11.30;77.30;;;;;;5032503;28;21177;-71
2024/01/26 09:13:57;;;;;;;3.07;1.40;;;11.30;77.10;;;;;;5020896;28;20905;-73
2024/01/26 09:16:22;;;;;;;2.70;1.60;;;11.40;77.10;;;;;;5036173;28;20416;-71
2024/01/26 09:18:48;;;;;;;2.07;1.30;;;11.40;76.80;;;;;;5020879;28;20428;-72
2024/01/26 09:21:14;;;;;;;2.10;1.50;;;11.50;76.70;;;;;;5030344;28;20205;-73
2024/01/26 09:23:40;;;;;;;1.77;1.00;;;11.50;76.70;;;;;;5023774;28;20264;-73
2024/01/26 09:26:05;;;;;;;2.50;1.43;;;11.50;76.50;;;;;;5038104;28;20190;-72
2024/01/26 09:28:31;;;;;;;4.90;1.60;;;11.50;75.90;;;;;;5032737;28;20438;-71
2024/01/26 09:30:57;;;;;;;1.83;1.10;;;11.60;75.90;;;;;;5028294;28;20205;-71
2024/01/26 09:33:23;;;;;;;4.47;1.57;;;11.60;75.70;;;;;;5024190;28;20187;-72
2024/01/26 09:35:49;;;;;;;8.73;2.00;;;11.70;75.70;;;;;;5034204;28;20189;-71
2024/01/26 09:38:14;;;;;;;8.93;2.10;;;11.70;75.70;;;;;;5030843;28;20496;-71
2024/01/26 09:40:42;;;;;;;6.20;1.90;;;11.70;75.70;;;;;;5026908;28;20459;-72
2024/01/26 09:43:08;;;;;;;7.53;2.37;;;11.70;75.70;;;;;;5033025;28;20229;-71
2024/01/26 09:45:33;;;;;;;19.07;3.43;;;11.70;75.70;;;;;;5031228;28;20421;-72
2024/01/26 09:48:01;;;;;;;14.70;3.00;;;11.80;75.70;;;;;;5031537;28;20353;-71
2024/01/26 09:50:27;;;;;;;1.90;1.50;;;11.80;75.50;;;;;;5022235;28;20205;-70
2024/01/26 09:52:54;;;;;;;3.10;1.83;;;11.90;75.40;;;;;;5026490;28;20439;-71
2024/01/26 09:55:20;;;;;;;18.73;3.07;;;11.90;75.10;;;;;;5018435;28;20452;-71
2024/01/26 09:57:47;;;;;;;3.70;1.73;;;11.90;75.40;;;;;;5021023;28;20428;-73
2024/01/26 10:00:13;;;;;;;4.47;1.80;;;11.80;75.10;;;;;;5019509;28;20483;-70
2024/01/26 10:02:41;;;;;;;7.47;2.20;;;11.80;75.40;;;;;;5038513;28;20475;-70
2024/01/26 10:05:07;;;;;;;10.33;2.07;;;11.80;75.20;;;;;;5023580;28;20506;-72
2024/01/26 10:07:32;;;;;;;3.00;1.67;;;11.80;75.20;;;;;;5036111;28;20504;-71
2024/01/26 10:09:58;;;;;;;4.17;1.60;;;11.80;75.40;;;;;;5019769;28;21075;-70
2024/01/26 10:12:24;;;;;;;1.97;1.50;;;11.90;75.20;;;;;;5027325;28;20192;-71
2024/01/26 10:14:49;;;;;;;4.60;1.77;;;12.00;74.90;;;;;;5019646;28;20173;-70
2024/01/26 10:17:18;;;;;;;2.83;1.60;;;12.00;74.80;;;;;;5036738;28;20645;-71
2024/01/26 10:19:44;;;;;;;2.63;1.60;;;12.00;74.80;;;;;;5020108;28;20610;-70
2024/01/26 10:22:09;;;;;;;2.37;1.40;;;12.00;74.80;;;;;;5024231;28;20479;-72
2024/01/26 10:24:35;;;;;;;4.53;2.43;;;12.10;74.50;;;;;;5023416;28;20427;-71
2024/01/26 10:27:01;;;;;;;2.67;1.90;;;12.10;74.50;;;;;;5031039;28;20193;-73
2024/01/26 10:29:27;;;;;;;4.43;1.47;;;12.10;74.50;;;;;;5028864;28;20536;-71
2024/01/26 10:31:53;;;;;;;2.37;1.77;;;12.20;73.90;;;;;;5027108;28;20483;-70
2024/01/26 10:34:19;;;;;;;2.80;1.63;;;12.20;73.70;;;;;;5027341;28;20653;-70
2024/01/26 10:36:47;;;;;;;3.13;1.80;;;12.20;73.70;;;;;;5032243;28;20424;-71
2024/01/26 10:39:28;;;;;;;5.23;1.50;;;12.20;73.90;;;;;;5040253;28;20439;-71
2024/01/26 10:41:57;;;;;;;2.60;1.50;;;12.30;73.70;;;;;;5021003;28;20476;-70
2024/01/26 10:44:23;;;;;;;13.10;2.20;;;12.30;73.50;;;;;;5034456;28;20615;-71
2024/01/26 10:46:52;;;;;;;2.10;1.40;;;12.30;73.60;;;;;;5027494;28;20511;-70
2024/01/26 10:49:19;;;;;;;4.87;1.77;;;12.30;73.60;;;;;;5031355;28;20423;-71
2024/01/26 10:51:46;;;;;;;2.03;1.47;;;12.30;73.60;;;;;;5025272;28;20462;-70
2024/01/26 10:54:13;;;;;;;3.03;1.47;;;12.30;73.60;;;;;;5038919;28;20412;-70
2024/01/26 10:56:39;;;;;;;2.60;1.57;;;12.30;73.60;;;;;;5016681;28;20500;-71
2024/01/26 10:59:10;;;;;;;3.80;2.00;;;12.30;73.70;;;;;;5040344;28;20452;-71
2024/01/26 11:01:39;;;;;;;4.17;2.00;;;12.40;73.60;;;;;;5019198;28;20485;-72
2024/01/26 11:04:12;;;;;;;3.90;1.57;;;12.40;73.50;;;;;;5028771;28;20587;-72
2024/01/26 11:06:39;;;;;;;2.07;1.43;;;12.40;73.60;;;;;;5028267;28;20507;-70
2024/01/26 11:09:08;;;;;;;3.30;1.70;;;12.40;73.60;;;;;;5040772;28;20429;-70
2024/01/26 11:11:37;;;;;;;3.00;1.60;;;12.50;73.60;;;;;;5028970;28;20447;-72
2024/01/26 11:14:03;;;;;;;3.30;1.67;;;12.50;73.50;;;;;;5028312;28;20425;-71
2024/01/26 11:17:07;;;;;;;5.13;1.80;;;12.50;73.60;;;;;;5029495;28;20427;-70
2024/01/26 11:19:32;;;;;;;3.90;1.70;;;12.50;73.60;;;;;;5031469;28;20424;-71
2024/01/26 11:22:02;;;;;;;4.47;2.17;;;12.60;73.60;;;;;;5030729;28;20484;-70
2024/01/26 11:24:32;;;;;;;3.10;2.00;;;12.60;73.50;;;;;;5026693;28;20308;-72
2024/01/26 11:27:00;;;;;;;3.10;1.90;;;12.60;73.50;;;;;;5047072;28;20436;-72
2024/01/26 11:29:37;;;;;;;3.70;1.43;;;12.60;73.50;;;;;;5030144;28;20432;-71
2024/01/26 11:32:17;;;;;;;2.77;2.10;;;12.60;73.60;;;;;;5019935;28;20471;-72
2024/01/26 11:34:43;;;;;;;3.50;1.43;;;12.70;73.50;;;;;;5022444;28;20427;-73
2024/01/26 11:37:11;;;;;;;3.00;1.90;;;12.60;73.60;;;;;;5039877;28;20419;-71
2024/01/26 11:39:38;;;;;;;2.90;1.67;;;12.60;73.90;;;;;;5036785;28;20426;-72
2024/01/26 11:42:08;;;;;;;3.97;1.73;;;12.70;73.70;;;;;;5025337;28;20511;-71
2024/01/26 11:44:41;;;;;;;2.43;1.37;;;12.60;73.70;;;;;;5030098;28;20403;-71
2024/01/26 11:47:10;;;;;;;3.20;1.67;;;12.60;73.90;;;;;;5034318;28;20463;-71
2024/01/26 11:49:37;;;;;;;2.53;1.57;;;12.60;74.30;;;;;;5036744;28;20514;-70
2024/01/26 11:52:04;;;;;;;2.83;1.40;;;12.60;74.30;;;;;;5022037;28;20569;-72
2024/01/26 11:54:31;;;;;;;1.90;1.50;;;12.60;74.30;;;;;;5034277;28;20426;-71
2024/01/26 11:56:58;;;;;;;2.03;1.40;;;12.60;74.30;;;;;;5026176;28;20424;-70
2024/01/26 11:59:23;;;;;;;2.50;1.83;;;12.50;75.50;;;;;;5021779;28;20539;-71
2024/01/26 12:01:49;;;;;;;2.60;1.73;;;12.50;75.90;;;;;;5023176;28;20571;-70
2024/01/26 12:04:16;;;;;;;3.37;1.70;;;12.50;77.00;;;;;;5026009;28;20268;-71
2024/01/26 12:06:42;;;;;;;2.73;1.70;;;12.50;77.00;;;;;;5023720;28;20178;-73
2024/01/26 12:09:09;;;;;;;3.70;1.70;;;12.50;76.70;;;;;;5038541;28;20442;-71
2024/01/26 12:11:35;;;;;;;2.63;1.70;;;12.50;76.40;;;;;;5024011;28;20471;-70
2024/01/26 12:14:01;;;;;;;2.50;1.70;;;12.60;76.50;;;;;;5030137;28;20439;-70
2024/01/26 12:16:30;;;;;;;3.67;1.47;;;12.60;75.80;;;;;;5021995;28;20512;-70
2024/01/26 12:18:56;;;;;;;3.40;1.70;;;12.50;75.50;;;;;;5033258;28;20182;-70
2024/01/26 12:21:25;;;;;;;2.00;1.50;;;12.50;75.50;;;;;;5015603;28;20484;-72
2024/01/26 12:23:50;;;;;;;2.50;1.70;;;12.50;75.40;;;;;;5023735;28;20444;-71
2024/01/26 12:26:16;;;;;;;2.17;1.40;;;12.50;75.50;;;;;;5021652;28;20835;-70
2024/01/26 12:28:42;;;;;;;1.93;1.40;;;12.50;75.20;;;;;;5022007;28;20675;-70
2024/01/26 12:31:08;;;;;;;2.27;1.70;;;12.50;75.50;;;;;;5016026;28;20218;-72
2024/01/26 12:33:37;;;;;;;1.40;1.33;;;12.60;75.20;;;;;;5022205;28;20212;-71
2024/01/26 12:36:11;;;;;;;1.80;1.40;;;12.60;75.10;;;;;;5022596;28;20420;-70
2024/01/26 12:38:37;;;;;;;1.73;1.00;;;12.60;75.40;;;;;;5024406;28;20466;-70
2024/01/26 12:41:03;;;;;;;1.57;1.27;;;12.50;75.20;;;;;;5029571;28;20849;-70
2024/01/26 12:43:28;;;;;;;1.40;1.03;;;12.50;75.50;;;;;;5027440;28;20319;-70